sensor_id;sensor_type;location;lat;lon;timestamp;pressure;altitude;pressure_sealevel;temperature
20736;BMP180;10528;52.124;5.196;2023-09-19T00:00:44;100599.00;;;22.20
20736;BMP180;10528;52.124;5.196;2023-09-19T00:03:15;100604.00;;;22.20
20736;BMP180;10528;52.124;5.196;2023-09-19T00:05:42;100612.00;;;22.20
20736;BMP180;10528;52.124;5.196;2023-09-19T00:08:10;100614.00;;;22.20
20736;BMP180;10528;52.124;5.196;2023-09-19T00:10:40;100617.00;;;22.20
20736;BMP180;10528;52.124;5.196;2023-09-19T00:13:09;100610.00;;;22.20
20736;BMP180;10528;52.124;5.196;2023-09-19T00:15:45;100621.00;;;22.20
20736;BMP180;10528;52.124;5.196;2023-09-19T00:18:16;100619.00;;;22.20
20736;BMP180;10528;52.124;5.196;2023-09-19T00:20:45;100619.00;;;22.10
20736;BMP180;10528;52.124;5.196;2023-09-19T00:23:14;100615.00;;;22.10
20736;BMP180;10528;52.124;5.196;2023-09-19T00:25:41;100630.00;;;22.10
20736;BMP180;10528;52.124;5.196;2023-09-19T00:28:08;100618.00;;;22.10
20736;BMP180;10528;52.124;5.196;2023-09-19T00:30:36;100621.00;;;22.10
20736;BMP180;10528;52.124;5.196;2023-09-19T00:33:05;100621.00;;;22.10
20736;BMP180;10528;52.124;5.196;2023-09-19T00:35:34;100622.00;;;22.10
20736;BMP180;10528;52.124;5.196;2023-09-19T00:38:01;100620.00;;;22.10
20736;BMP180;10528;52.124;5.196;2023-09-19T00:40:29;100617.00;;;22.10
20736;BMP180;10528;52.124;5.196;2023-09-19T00:42:58;100626.00;;;22.10
20736;BMP180;10528;52.124;5.196;2023-09-19T00:45:27;100628.00;;;22.10
20736;BMP180;10528;52.124;5.196;2023-09-19T00:48:01;100633.00;;;22.10
20736;BMP180;10528;52.124;5.196;2023-09-19T00:50:30;100634.00;;;22.10
20736;BMP180;10528;52.124;5.196;2023-09-19T00:52:59;100633.00;;;22.10
20736;BMP180;10528;52.124;5.196;2023-09-19T00:55:28;100639.00;;;22.10
20736;BMP180;10528;52.124;5.196;2023-09-19T00:57:57;100645.00;;;22.10
20736;BMP180;10528;52.124;5.196;2023-09-19T01:00:24;100647.00;;;22.10
20736;BMP180;10528;52.124;5.196;2023-09-19T01:02:51;100646.00;;;22.10
20736;BMP180;10528;52.124;5.196;2023-09-19T01:05:19;100640.00;;;22.10
20736;BMP180;10528;52.124;5.196;2023-09-19T01:07:46;100640.00;;;22.10
20736;BMP180;10528;52.124;5.196;2023-09-19T01:10:19;100644.00;;;22.10
20736;BMP180;10528;52.124;5.196;2023-09-19T01:30:56;100645.00;;;21.90
20736;BMP180;10528;52.124;5.196;2023-09-19T01:33:26;100636.00;;;21.90
20736;BMP180;10528;52.124;5.196;2023-09-19T01:35:53;100651.00;;;21.90
20736;BMP180;10528;52.124;5.196;2023-09-19T01:38:24;100655.00;;;21.90
20736;BMP180;10528;52.124;5.196;2023-09-19T01:41:19;100657.00;;;21.90
20736;BMP180;10528;52.124;5.196;2023-09-19T01:43:50;100655.00;;;21.90
20736;BMP180;10528;52.124;5.196;2023-09-19T01:46:39;100670.00;;;21.90
20736;BMP180;10528;52.124;5.196;2023-09-19T01:49:22;100665.00;;;21.90
20736;BMP180;10528;52.124;5.196;2023-09-19T01:52:10;100658.00;;;21.80
20736;BMP180;10528;52.124;5.196;2023-09-19T01:54:52;100659.00;;;21.80
20736;BMP180;10528;52.124;5.196;2023-09-19T01:57:35;100661.00;;;21.80
20736;BMP180;10528;52.124;5.196;2023-09-19T02:00:07;100665.00;;;21.80
20736;BMP180;10528;52.124;5.196;2023-09-19T02:02:45;100665.00;;;21.80
20736;BMP180;10528;52.124;5.196;2023-09-19T02:05:23;100659.00;;;21.80
20736;BMP180;10528;52.124;5.196;2023-09-19T02:07:55;100653.00;;;21.80
20736;BMP180;10528;52.124;5.196;2023-09-19T02:10:22;100651.00;;;21.80
20736;BMP180;10528;52.124;5.196;2023-09-19T02:12:50;100649.00;;;21.70
20736;BMP180;10528;52.124;5.196;2023-09-19T02:15:18;100656.00;;;21.70
20736;BMP180;10528;52.124;5.196;2023-09-19T02:17:45;100659.00;;;21.80
20736;BMP180;10528;52.124;5.196;2023-09-19T02:20:13;100648.00;;;21.70
20736;BMP180;10528;52.124;5.196;2023-09-19T02:22:44;100655.00;;;21.70
20736;BMP180;10528;52.124;5.196;2023-09-19T02:25:11;100659.00;;;21.70
20736;BMP180;10528;52.124;5.196;2023-09-19T02:27:38;100667.00;;;21.70
20736;BMP180;10528;52.124;5.196;2023-09-19T02:30:07;100656.00;;;21.70
20736;BMP180;10528;52.124;5.196;2023-09-19T02:32:34;100654.00;;;21.70
20736;BMP180;10528;52.124;5.196;2023-09-19T02:35:06;100661.00;;;21.70
20736;BMP180;10528;52.124;5.196;2023-09-19T02:37:33;100661.00;;;21.70
20736;BMP180;10528;52.124;5.196;2023-09-19T02:40:01;100667.00;;;21.70
20736;BMP180;10528;52.124;5.196;2023-09-19T02:42:29;100670.00;;;21.70
20736;BMP180;10528;52.124;5.196;2023-09-19T02:44:56;100667.00;;;21.70
20736;BMP180;10528;52.124;5.196;2023-09-19T02:47:24;100658.00;;;21.70
20736;BMP180;10528;52.124;5.196;2023-09-19T02:49:51;100670.00;;;21.70
20736;BMP180;10528;52.124;5.196;2023-09-19T02:52:18;100667.00;;;21.70
20736;BMP180;10528;52.124;5.196;2023-09-19T02:54:47;100680.00;;;21.70
20736;BMP180;10528;52.124;5.196;2023-09-19T02:57:13;100679.00;;;21.70
20736;BMP180;10528;52.124;5.196;2023-09-19T02:59:43;100678.00;;;21.60
20736;BMP180;10528;52.124;5.196;2023-09-19T03:02:11;100676.00;;;21.70
20736;BMP180;10528;52.124;5.196;2023-09-19T03:04:38;100672.00;;;21.60
20736;BMP180;10528;52.124;5.196;2023-09-19T03:07:05;100674.00;;;21.60
20736;BMP180;10528;52.124;5.196;2023-09-19T03:09:32;100661.00;;;21.60
20736;BMP180;10528;52.124;5.196;2023-09-19T03:11:59;100670.00;;;21.60
20736;BMP180;10528;52.124;5.196;2023-09-19T03:14:27;100668.00;;;21.60
20736;BMP180;10528;52.124;5.196;2023-09-19T03:16:58;100664.00;;;21.60
20736;BMP180;10528;52.124;5.196;2023-09-19T03:19:26;100659.00;;;21.50
20736;BMP180;10528;52.124;5.196;2023-09-19T03:21:54;100666.00;;;21.50
20736;BMP180;10528;52.124;5.196;2023-09-19T03:24:21;100673.00;;;21.50
20736;BMP180;10528;52.124;5.196;2023-09-19T03:26:48;100671.00;;;21.50
20736;BMP180;10528;52.124;5.196;2023-09-19T03:29:15;100654.00;;;21.50
20736;BMP180;10528;52.124;5.196;2023-09-19T03:31:44;100664.00;;;21.50
20736;BMP180;10528;52.124;5.196;2023-09-19T03:34:12;100666.00;;;21.40
20736;BMP180;10528;52.124;5.196;2023-09-19T03:36:39;100658.00;;;21.40
20736;BMP180;10528;52.124;5.196;2023-09-19T03:39:07;100658.00;;;21.40
20736;BMP180;10528;52.124;5.196;2023-09-19T03:41:34;100655.00;;;21.40
20736;BMP180;10528;52.124;5.196;2023-09-19T03:44:04;100648.00;;;21.40
20736;BMP180;10528;52.124;5.196;2023-09-19T03:46:31;100659.00;;;21.40
20736;BMP180;10528;52.124;5.196;2023-09-19T03:48:59;100659.00;;;21.40
20736;BMP180;10528;52.124;5.196;2023-09-19T03:51:27;100650.00;;;21.40
20736;BMP180;10528;52.124;5.196;2023-09-19T03:53:54;100664.00;;;21.40
20736;BMP180;10528;52.124;5.196;2023-09-19T03:56:21;100659.00;;;21.40
20736;BMP180;10528;52.124;5.196;2023-09-19T03:58:48;100676.00;;;21.40
20736;BMP180;10528;52.124;5.196;2023-09-19T04:01:16;100675.00;;;21.30
20736;BMP180;10528;52.124;5.196;2023-09-19T04:03:45;100674.00;;;21.30
20736;BMP180;10528;52.124;5.196;2023-09-19T04:06:16;100679.00;;;21.30
20736;BMP180;10528;52.124;5.196;2023-09-19T04:08:44;100685.00;;;21.30
20736;BMP180;10528;52.124;5.196;2023-09-19T04:11:11;100695.00;;;21.30
20736;BMP180;10528;52.124;5.196;2023-09-19T04:13:38;100689.00;;;21.30
20736;BMP180;10528;52.124;5.196;2023-09-19T04:16:06;100692.00;;;21.20
20736;BMP180;10528;52.124;5.196;2023-09-19T04:18:36;100691.00;;;21.20
20736;BMP180;10528;52.124;5.196;2023-09-19T04:21:04;100700.00;;;21.30
20736;BMP180;10528;52.124;5.196;2023-09-19T04:23:33;100709.00;;;21.30
20736;BMP180;10528;52.124;5.196;2023-09-19T04:26:00;100704.00;;;21.30
20736;BMP180;10528;52.124;5.196;2023-09-19T04:28:27;100715.00;;;21.10
20736;BMP180;10528;52.124;5.196;2023-09-19T04:30:56;100709.00;;;21.20
20736;BMP180;10528;52.124;5.196;2023-09-19T04:33:25;100721.00;;;21.20
20736;BMP180;10528;52.124;5.196;2023-09-19T04:35:53;100716.00;;;21.10
20736;BMP180;10528;52.124;5.196;2023-09-19T04:38:21;100719.00;;;21.00
20736;BMP180;10528;52.124;5.196;2023-09-19T04:40:49;100723.00;;;21.10
20736;BMP180;10528;52.124;5.196;2023-09-19T04:43:16;100722.00;;;21.20
20736;BMP180;10528;52.124;5.196;2023-09-19T04:45:43;100721.00;;;21.20
20736;BMP180;10528;52.124;5.196;2023-09-19T04:48:10;100715.00;;;21.20
20736;BMP180;10528;52.124;5.196;2023-09-19T04:50:38;100725.00;;;21.20
20736;BMP180;10528;52.124;5.196;2023-09-19T04:53:05;100718.00;;;21.20
20736;BMP180;10528;52.124;5.196;2023-09-19T04:55:33;100715.00;;;21.20
20736;BMP180;10528;52.124;5.196;2023-09-19T04:58:00;100704.00;;;21.20
20736;BMP180;10528;52.124;5.196;2023-09-19T05:00:27;100712.00;;;21.20
20736;BMP180;10528;52.124;5.196;2023-09-19T05:02:57;100724.00;;;21.20
20736;BMP180;10528;52.124;5.196;2023-09-19T05:05:24;100721.00;;;21.20
20736;BMP180;10528;52.124;5.196;2023-09-19T05:07:52;100713.00;;;21.10
20736;BMP180;10528;52.124;5.196;2023-09-19T05:10:21;100723.00;;;21.10
20736;BMP180;10528;52.124;5.196;2023-09-19T05:12:48;100727.00;;;21.10
20736;BMP180;10528;52.124;5.196;2023-09-19T05:15:18;100725.00;;;21.10
20736;BMP180;10528;52.124;5.196;2023-09-19T05:17:50;100725.00;;;21.10
20736;BMP180;10528;52.124;5.196;2023-09-19T05:20:23;100728.00;;;21.10
20736;BMP180;10528;52.124;5.196;2023-09-19T05:23:07;100718.00;;;21.10
20736;BMP180;10528;52.124;5.196;2023-09-19T05:25:40;100725.00;;;21.10
20736;BMP180;10528;52.124;5.196;2023-09-19T05:28:10;100730.00;;;21.10
20736;BMP180;10528;52.124;5.196;2023-09-19T05:30:38;100732.00;;;21.10
20736;BMP180;10528;52.124;5.196;2023-09-19T05:33:07;100727.00;;;21.10
20736;BMP180;10528;52.124;5.196;2023-09-19T05:35:35;100713.00;;;21.10
20736;BMP180;10528;52.124;5.196;2023-09-19T05:38:07;100731.00;;;21.10
20736;BMP180;10528;52.124;5.196;2023-09-19T05:40:35;100718.00;;;21.10
20736;BMP180;10528;52.124;5.196;2023-09-19T05:43:03;100722.00;;;21.10
20736;BMP180;10528;52.124;5.196;2023-09-19T05:45:32;100723.00;;;21.10
20736;BMP180;10528;52.124;5.196;2023-09-19T05:48:12;100728.00;;;21.10
20736;BMP180;10528;52.124;5.196;2023-09-19T05:50:44;100735.00;;;21.10
20736;BMP180;10528;52.124;5.196;2023-09-19T05:53:15;100740.00;;;21.10
20736;BMP180;10528;52.124;5.196;2023-09-19T05:55:43;100729.00;;;21.10
20736;BMP180;10528;52.124;5.196;2023-09-19T05:58:10;100750.00;;;21.10
20736;BMP180;10528;52.124;5.196;2023-09-19T06:00:40;100740.00;;;21.10
20736;BMP180;10528;52.124;5.196;2023-09-19T06:03:10;100743.00;;;21.10
20736;BMP180;10528;52.124;5.196;2023-09-19T06:05:38;100752.00;;;21.20
20736;BMP180;10528;52.124;5.196;2023-09-19T06:08:06;100749.00;;;21.20
20736;BMP180;10528;52.124;5.196;2023-09-19T06:10:35;100753.00;;;21.20
20736;BMP180;10528;52.124;5.196;2023-09-19T06:13:03;100751.00;;;21.20
20736;BMP180;10528;52.124;5.196;2023-09-19T06:15:36;100752.00;;;21.20
20736;BMP180;10528;52.124;5.196;2023-09-19T06:18:04;100759.00;;;21.20
20736;BMP180;10528;52.124;5.196;2023-09-19T06:20:32;100758.00;;;21.30
20736;BMP180;10528;52.124;5.196;2023-09-19T06:23:00;100768.00;;;21.30
20736;BMP180;10528;52.124;5.196;2023-09-19T06:25:29;100755.00;;;21.30
20736;BMP180;10528;52.124;5.196;2023-09-19T06:27:56;100771.00;;;21.40
20736;BMP180;10528;52.124;5.196;2023-09-19T06:30:24;100768.00;;;21.40
20736;BMP180;10528;52.124;5.196;2023-09-19T06:32:59;100755.00;;;21.40
20736;BMP180;10528;52.124;5.196;2023-09-19T06:35:32;100752.00;;;21.40
20736;BMP180;10528;52.124;5.196;2023-09-19T06:38:03;100758.00;;;21.50
20736;BMP180;10528;52.124;5.196;2023-09-19T06:40:30;100754.00;;;21.50
20736;BMP180;10528;52.124;5.196;2023-09-19T06:42:58;100757.00;;;21.50
20736;BMP180;10528;52.124;5.196;2023-09-19T06:45:24;100760.00;;;21.50
20736;BMP180;10528;52.124;5.196;2023-09-19T06:47:54;100760.00;;;21.50
20736;BMP180;10528;52.124;5.196;2023-09-19T06:50:26;100766.00;;;21.60
20736;BMP180;10528;52.124;5.196;2023-09-19T06:52:55;100758.00;;;21.60
20736;BMP180;10528;52.124;5.196;2023-09-19T06:55:24;100761.00;;;21.60
20736;BMP180;10528;52.124;5.196;2023-09-19T06:57:54;100759.00;;;21.70
20736;BMP180;10528;52.124;5.196;2023-09-19T07:00:21;100762.00;;;21.70
20736;BMP180;10528;52.124;5.196;2023-09-19T07:03:04;100756.00;;;21.70
20736;BMP180;10528;52.124;5.196;2023-09-19T07:05:38;100760.00;;;21.70
20736;BMP180;10528;52.124;5.196;2023-09-19T07:08:08;100749.00;;;21.70
20736;BMP180;10528;52.124;5.196;2023-09-19T07:10:37;100757.00;;;21.70
20736;BMP180;10528;52.124;5.196;2023-09-19T07:13:08;100761.00;;;21.70
20736;BMP180;10528;52.124;5.196;2023-09-19T07:15:39;100762.00;;;21.80
20736;BMP180;10528;52.124;5.196;2023-09-19T07:18:08;100765.00;;;21.80
20736;BMP180;10528;52.124;5.196;2023-09-19T07:20:38;100767.00;;;21.80
20736;BMP180;10528;52.124;5.196;2023-09-19T07:23:05;100767.00;;;21.90
20736;BMP180;10528;52.124;5.196;2023-09-19T07:25:33;100781.00;;;21.90
20736;BMP180;10528;52.124;5.196;2023-09-19T07:28:02;100772.00;;;21.90
20736;BMP180;10528;52.124;5.196;2023-09-19T07:30:29;100786.00;;;21.90
20736;BMP180;10528;52.124;5.196;2023-09-19T07:32:57;100792.00;;;22.00
20736;BMP180;10528;52.124;5.196;2023-09-19T07:35:24;100795.00;;;22.00
20736;BMP180;10528;52.124;5.196;2023-09-19T07:37:54;100792.00;;;22.00
20736;BMP180;10528;52.124;5.196;2023-09-19T07:40:23;100784.00;;;22.00
20736;BMP180;10528;52.124;5.196;2023-09-19T07:42:56;100780.00;;;22.00
20736;BMP180;10528;52.124;5.196;2023-09-19T07:45:28;100797.00;;;22.10
20736;BMP180;10528;52.124;5.196;2023-09-19T07:47:57;100792.00;;;22.10
20736;BMP180;10528;52.124;5.196;2023-09-19T07:50:24;100788.00;;;22.10
20736;BMP180;10528;52.124;5.196;2023-09-19T07:52:53;100791.00;;;22.10
20736;BMP180;10528;52.124;5.196;2023-09-19T07:55:20;100798.00;;;22.20
20736;BMP180;10528;52.124;5.196;2023-09-19T07:57:50;100797.00;;;22.20
20736;BMP180;10528;52.124;5.196;2023-09-19T08:00:18;100801.00;;;22.20
20736;BMP180;10528;52.124;5.196;2023-09-19T08:02:45;100797.00;;;22.30
20736;BMP180;10528;52.124;5.196;2023-09-19T08:05:16;100790.00;;;22.30
20736;BMP180;10528;52.124;5.196;2023-09-19T08:07:46;100797.00;;;22.30
20736;BMP180;10528;52.124;5.196;2023-09-19T08:10:16;100792.00;;;22.40
20736;BMP180;10528;52.124;5.196;2023-09-19T08:12:48;100798.00;;;22.30
20736;BMP180;10528;52.124;5.196;2023-09-19T08:15:17;100791.00;;;22.40
20736;BMP180;10528;52.124;5.196;2023-09-19T08:17:46;100790.00;;;22.40
20736;BMP180;10528;52.124;5.196;2023-09-19T08:20:14;100790.00;;;22.40
20736;BMP180;10528;52.124;5.196;2023-09-19T08:22:53;100784.00;;;22.40
20736;BMP180;10528;52.124;5.196;2023-09-19T08:25:22;100792.00;;;22.50
20736;BMP180;10528;52.124;5.196;2023-09-19T08:27:50;100792.00;;;22.60
20736;BMP180;10528;52.124;5.196;2023-09-19T08:30:20;100786.00;;;22.60
20736;BMP180;10528;52.124;5.196;2023-09-19T08:32:57;100774.00;;;22.60
20736;BMP180;10528;52.124;5.196;2023-09-19T08:35:27;100792.00;;;22.60
20736;BMP180;10528;52.124;5.196;2023-09-19T08:37:54;100780.00;;;22.70
20736;BMP180;10528;52.124;5.196;2023-09-19T08:40:24;100781.00;;;22.70
20736;BMP180;10528;52.124;5.196;2023-09-19T08:42:56;100778.00;;;22.60
20736;BMP180;10528;52.124;5.196;2023-09-19T08:45:24;100782.00;;;22.70
20736;BMP180;10528;52.124;5.196;2023-09-19T08:48:23;100784.00;;;22.70
20736;BMP180;10528;52.124;5.196;2023-09-19T08:53:31;100778.00;;;22.80
20736;BMP180;10528;52.124;5.196;2023-09-19T08:56:02;100786.00;;;22.90
20736;BMP180;10528;52.124;5.196;2023-09-19T08:58:45;100780.00;;;22.90
20736;BMP180;10528;52.124;5.196;2023-09-19T09:01:15;100793.00;;;22.90
20736;BMP180;10528;52.124;5.196;2023-09-19T09:03:45;100777.00;;;22.90
20736;BMP180;10528;52.124;5.196;2023-09-19T09:06:16;100786.00;;;23.00
20736;BMP180;10528;52.124;5.196;2023-09-19T09:08:44;100778.00;;;23.00
20736;BMP180;10528;52.124;5.196;2023-09-19T09:11:12;100782.00;;;23.10
20736;BMP180;10528;52.124;5.196;2023-09-19T09:13:43;100774.00;;;23.20
20736;BMP180;10528;52.124;5.196;2023-09-19T09:16:10;100783.00;;;23.20
20736;BMP180;10528;52.124;5.196;2023-09-19T09:18:37;100776.00;;;23.30
20736;BMP180;10528;52.124;5.196;2023-09-19T09:21:05;100767.00;;;23.40
20736;BMP180;10528;52.124;5.196;2023-09-19T09:23:32;100778.00;;;23.40
20736;BMP180;10528;52.124;5.196;2023-09-19T09:26:00;100767.00;;;23.40
20736;BMP180;10528;52.124;5.196;2023-09-19T09:28:35;100760.00;;;23.50
20736;BMP180;10528;52.124;5.196;2023-09-19T09:31:03;100763.00;;;23.50
20736;BMP180;10528;52.124;5.196;2023-09-19T09:33:35;100769.00;;;23.60
20736;BMP180;10528;52.124;5.196;2023-09-19T09:36:03;100763.00;;;23.60
20736;BMP180;10528;52.124;5.196;2023-09-19T09:38:46;100754.00;;;23.60
20736;BMP180;10528;52.124;5.196;2023-09-19T09:41:16;100750.00;;;23.60
20736;BMP180;10528;52.124;5.196;2023-09-19T09:43:54;100746.00;;;23.70
20736;BMP180;10528;52.124;5.196;2023-09-19T09:46:21;100746.00;;;23.80
20736;BMP180;10528;52.124;5.196;2023-09-19T09:48:56;100765.00;;;23.80
20736;BMP180;10528;52.124;5.196;2023-09-19T09:54:16;100755.00;;;23.80
20736;BMP180;10528;52.124;5.196;2023-09-19T09:56:58;100756.00;;;23.80
20736;BMP180;10528;52.124;5.196;2023-09-19T09:59:59;100755.00;;;23.70
20736;BMP180;10528;52.124;5.196;2023-09-19T10:02:43;100762.00;;;23.90
20736;BMP180;10528;52.124;5.196;2023-09-19T10:05:19;100773.00;;;23.80
20736;BMP180;10528;52.124;5.196;2023-09-19T10:07:55;100759.00;;;23.70
20736;BMP180;10528;52.124;5.196;2023-09-19T10:13:10;100761.00;;;23.80
20736;BMP180;10528;52.124;5.196;2023-09-19T10:15:50;100769.00;;;23.80
20736;BMP180;10528;52.124;5.196;2023-09-19T10:18:24;100755.00;;;23.90
20736;BMP180;10528;52.124;5.196;2023-09-19T10:20:52;100754.00;;;23.90
20736;BMP180;10528;52.124;5.196;2023-09-19T10:23:21;100749.00;;;24.00
20736;BMP180;10528;52.124;5.196;2023-09-19T10:25:53;100750.00;;;24.00
20736;BMP180;10528;52.124;5.196;2023-09-19T10:28:21;100740.00;;;24.10
20736;BMP180;10528;52.124;5.196;2023-09-19T10:30:51;100722.00;;;23.90
20736;BMP180;10528;52.124;5.196;2023-09-19T10:33:24;100732.00;;;24.10
20736;BMP180;10528;52.124;5.196;2023-09-19T10:35:59;100726.00;;;24.20
20736;BMP180;10528;52.124;5.196;2023-09-19T10:38:27;100723.00;;;24.30
20736;BMP180;10528;52.124;5.196;2023-09-19T10:40:57;100721.00;;;24.40
20736;BMP180;10528;52.124;5.196;2023-09-19T10:43:32;100726.00;;;24.50
20736;BMP180;10528;52.124;5.196;2023-09-19T10:46:08;100727.00;;;24.50
20736;BMP180;10528;52.124;5.196;2023-09-19T10:48:40;100724.00;;;24.40
20736;BMP180;10528;52.124;5.196;2023-09-19T10:51:22;100716.00;;;24.60
20736;BMP180;10528;52.124;5.196;2023-09-19T10:54:01;100715.00;;;24.60
20736;BMP180;10528;52.124;5.196;2023-09-19T10:56:34;100717.00;;;24.70
20736;BMP180;10528;52.124;5.196;2023-09-19T10:59:09;100704.00;;;24.70
20736;BMP180;10528;52.124;5.196;2023-09-19T11:01:49;100709.00;;;24.60
20736;BMP180;10528;52.124;5.196;2023-09-19T11:04:28;100710.00;;;24.70
20736;BMP180;10528;52.124;5.196;2023-09-19T11:07:14;100707.00;;;24.80
20736;BMP180;10528;52.124;5.196;2023-09-19T11:09:55;100709.00;;;24.80
20736;BMP180;10528;52.124;5.196;2023-09-19T11:14:55;100703.00;;;24.90
20736;BMP180;10528;52.124;5.196;2023-09-19T11:30:39;100699.00;;;24.80
20736;BMP180;10528;52.124;5.196;2023-09-19T11:33:26;100697.00;;;24.80
20736;BMP180;10528;52.124;5.196;2023-09-19T11:46:33;100676.00;;;24.70
20736;BMP180;10528;52.124;5.196;2023-09-19T11:49:08;100678.00;;;24.70
20736;BMP180;10528;52.124;5.196;2023-09-19T11:51:42;100666.00;;;24.70
20736;BMP180;10528;52.124;5.196;2023-09-19T11:54:12;100673.00;;;24.80
20736;BMP180;10528;52.124;5.196;2023-09-19T11:56:51;100675.00;;;24.80
20736;BMP180;10528;52.124;5.196;2023-09-19T11:59:27;100681.00;;;24.80
20736;BMP180;10528;52.124;5.196;2023-09-19T12:02:04;100678.00;;;24.90
20736;BMP180;10528;52.124;5.196;2023-09-19T12:04:39;100691.00;;;24.80
20736;BMP180;10528;52.124;5.196;2023-09-19T12:07:13;100696.00;;;24.90
20736;BMP180;10528;52.124;5.196;2023-09-19T12:09:48;100685.00;;;24.80
20736;BMP180;10528;52.124;5.196;2023-09-19T12:12:25;100674.00;;;24.80
20736;BMP180;10528;52.124;5.196;2023-09-19T12:14:57;100690.00;;;24.80
20736;BMP180;10528;52.124;5.196;2023-09-19T12:17:47;100678.00;;;24.70
20736;BMP180;10528;52.124;5.196;2023-09-19T12:20:14;100689.00;;;24.70
20736;BMP180;10528;52.124;5.196;2023-09-19T12:22:46;100679.00;;;24.70
20736;BMP180;10528;52.124;5.196;2023-09-19T12:25:14;100685.00;;;24.70
20736;BMP180;10528;52.124;5.196;2023-09-19T12:27:48;100677.00;;;24.60
20736;BMP180;10528;52.124;5.196;2023-09-19T12:30:28;100680.00;;;24.60
20736;BMP180;10528;52.124;5.196;2023-09-19T12:32:55;100684.00;;;24.60
20736;BMP180;10528;52.124;5.196;2023-09-19T12:35:30;100691.00;;;24.60
20736;BMP180;10528;52.124;5.196;2023-09-19T12:37:57;100691.00;;;24.60
20736;BMP180;10528;52.124;5.196;2023-09-19T12:40:25;100698.00;;;24.50
20736;BMP180;10528;52.124;5.196;2023-09-19T12:42:57;100690.00;;;24.60
20736;BMP180;10528;52.124;5.196;2023-09-19T12:45:35;100682.00;;;24.40
20736;BMP180;10528;52.124;5.196;2023-09-19T12:48:30;100686.00;;;24.50
20736;BMP180;10528;52.124;5.196;2023-09-19T12:51:12;100678.00;;;24.60
20736;BMP180;10528;52.124;5.196;2023-09-19T12:53:44;100685.00;;;24.60
20736;BMP180;10528;52.124;5.196;2023-09-19T12:56:14;100694.00;;;24.60
20736;BMP180;10528;52.124;5.196;2023-09-19T12:58:53;100693.00;;;24.60
20736;BMP180;10528;52.124;5.196;2023-09-19T13:01:25;100693.00;;;24.60
20736;BMP180;10528;52.124;5.196;2023-09-19T13:04:17;100692.00;;;24.40
20736;BMP180;10528;52.124;5.196;2023-09-19T13:06:50;100700.00;;;24.40
20736;BMP180;10528;52.124;5.196;2023-09-19T13:09:20;100720.00;;;24.50
20736;BMP180;10528;52.124;5.196;2023-09-19T13:11:48;100690.00;;;24.60
20736;BMP180;10528;52.124;5.196;2023-09-19T13:14:27;100694.00;;;24.60
20736;BMP180;10528;52.124;5.196;2023-09-19T13:17:04;100691.00;;;24.60
20736;BMP180;10528;52.124;5.196;2023-09-19T13:19:48;100708.00;;;24.60
20736;BMP180;10528;52.124;5.196;2023-09-19T13:22:42;100707.00;;;24.60
20736;BMP180;10528;52.124;5.196;2023-09-19T13:25:14;100703.00;;;24.60
20736;BMP180;10528;52.124;5.196;2023-09-19T13:27:55;100694.00;;;24.60
20736;BMP180;10528;52.124;5.196;2023-09-19T13:30:26;100680.00;;;24.60
20736;BMP180;10528;52.124;5.196;2023-09-19T13:33:10;100693.00;;;24.70
20736;BMP180;10528;52.124;5.196;2023-09-19T13:35:39;100684.00;;;24.70
20736;BMP180;10528;52.124;5.196;2023-09-19T13:38:08;100679.00;;;24.70
20736;BMP180;10528;52.124;5.196;2023-09-19T13:40:39;100684.00;;;24.80
20736;BMP180;10528;52.124;5.196;2023-09-19T13:43:09;100676.00;;;24.70
20736;BMP180;10528;52.124;5.196;2023-09-19T13:45:36;100666.00;;;24.80
20736;BMP180;10528;52.124;5.196;2023-09-19T13:48:04;100675.00;;;24.80
20736;BMP180;10528;52.124;5.196;2023-09-19T13:50:31;100667.00;;;24.70
20736;BMP180;10528;52.124;5.196;2023-09-19T13:52:58;100664.00;;;24.70
20736;BMP180;10528;52.124;5.196;2023-09-19T13:55:27;100663.00;;;24.70
20736;BMP180;10528;52.124;5.196;2023-09-19T13:57:54;100666.00;;;24.70
20736;BMP180;10528;52.124;5.196;2023-09-19T14:00:23;100662.00;;;24.70
20736;BMP180;10528;52.124;5.196;2023-09-19T14:02:50;100666.00;;;24.60
20736;BMP180;10528;52.124;5.196;2023-09-19T14:05:19;100670.00;;;24.60
20736;BMP180;10528;52.124;5.196;2023-09-19T14:07:47;100664.00;;;24.60
20736;BMP180;10528;52.124;5.196;2023-09-19T14:10:14;100665.00;;;24.60
20736;BMP180;10528;52.124;5.196;2023-09-19T14:12:45;100681.00;;;24.60
20736;BMP180;10528;52.124;5.196;2023-09-19T14:15:12;100692.00;;;24.50
20736;BMP180;10528;52.124;5.196;2023-09-19T14:17:40;100678.00;;;24.60
20736;BMP180;10528;52.124;5.196;2023-09-19T14:20:12;100680.00;;;24.50
20736;BMP180;10528;52.124;5.196;2023-09-19T14:22:41;100683.00;;;24.40
20736;BMP180;10528;52.124;5.196;2023-09-19T14:25:08;100669.00;;;24.40
20736;BMP180;10528;52.124;5.196;2023-09-19T14:27:35;100667.00;;;24.50
20736;BMP180;10528;52.124;5.196;2023-09-19T14:30:03;100659.00;;;24.40
20736;BMP180;10528;52.124;5.196;2023-09-19T14:32:31;100669.00;;;24.30
20736;BMP180;10528;52.124;5.196;2023-09-19T14:34:58;100669.00;;;24.50
20736;BMP180;10528;52.124;5.196;2023-09-19T14:37:25;100660.00;;;24.50
20736;BMP180;10528;52.124;5.196;2023-09-19T14:39:57;100669.00;;;24.50
20736;BMP180;10528;52.124;5.196;2023-09-19T14:42:24;100679.00;;;24.40
20736;BMP180;10528;52.124;5.196;2023-09-19T14:44:51;100680.00;;;24.30
20736;BMP180;10528;52.124;5.196;2023-09-19T14:47:18;100690.00;;;24.40
20736;BMP180;10528;52.124;5.196;2023-09-19T14:49:45;100673.00;;;24.30
20736;BMP180;10528;52.124;5.196;2023-09-19T14:52:12;100691.00;;;24.30
20736;BMP180;10528;52.124;5.196;2023-09-19T14:54:42;100700.00;;;24.30
20736;BMP180;10528;52.124;5.196;2023-09-19T14:57:09;100690.00;;;24.40
20736;BMP180;10528;52.124;5.196;2023-09-19T14:59:37;100692.00;;;24.20
20736;BMP180;10528;52.124;5.196;2023-09-19T15:02:04;100681.00;;;24.00
20736;BMP180;10528;52.124;5.196;2023-09-19T15:04:32;100678.00;;;24.20
20736;BMP180;10528;52.124;5.196;2023-09-19T15:07:00;100671.00;;;24.30
20736;BMP180;10528;52.124;5.196;2023-09-19T15:09:28;100671.00;;;24.30